createdAt,value
2019-06-20T00:00:48.406Z,19.00
2019-06-20T00:03:18.948Z,18.90
2019-06-20T00:05:48.298Z,18.80
2019-06-20T00:08:17.624Z,18.90
2019-06-20T00:10:46.977Z,18.80
2019-06-20T00:13:16.690Z,18.70
2019-06-20T00:15:46.103Z,18.60
2019-06-20T00:18:16.903Z,18.50
2019-06-20T00:20:46.243Z,18.50
2019-06-20T00:23:15.583Z,18.40
2019-06-20T00:25:45.271Z,18.30
2019-06-20T00:28:14.972Z,18.10
2019-06-20T00:30:44.311Z,18.20
2019-06-20T00:33:13.648Z,18.10
2019-06-20T00:35:42.997Z,18.10
2019-06-20T00:38:12.496Z,18.10
2019-06-20T00:40:41.896Z,18.10
2019-06-20T00:43:17.547Z,17.90
2019-06-20T00:45:42.357Z,17.80
2019-06-20T00:48:11.701Z,17.80
2019-06-20T00:50:41.111Z,17.80
2019-06-20T00:53:10.753Z,17.60
2019-06-20T00:55:40.155Z,17.70
2019-06-20T00:58:09.495Z,17.70
2019-06-20T01:00:38.831Z,17.70
2019-06-20T01:03:09.271Z,17.60
2019-06-20T01:05:38.599Z,17.60
2019-06-20T01:08:07.995Z,17.50
2019-06-20T01:10:37.460Z,17.50
2019-06-20T01:13:06.801Z,17.60
2019-06-20T01:15:36.131Z,17.60
2019-06-20T01:18:05.586Z,17.60
2019-06-20T01:20:36.490Z,17.60
2019-06-20T01:23:05.837Z,17.60
2019-06-20T01:25:43.197Z,17.40
2019-06-20T01:28:12.655Z,17.40
2019-06-20T01:30:42.185Z,17.30
2019-06-20T01:33:12.730Z,17.20
2019-06-20T01:35:42.063Z,17.20
2019-06-20T01:38:11.401Z,17.10
2019-06-20T01:40:41.031Z,17.10
2019-06-20T01:43:10.549Z,17.10
2019-06-20T01:45:39.979Z,17.00
2019-06-20T01:48:09.386Z,17.00
2019-06-20T01:50:38.732Z,17.00
2019-06-20T01:53:08.132Z,17.00
2019-06-20T01:55:37.467Z,16.90
2019-06-20T01:58:07.233Z,17.00
2019-06-20T02:00:46.271Z,16.90
2019-06-20T02:03:18.907Z,16.90
2019-06-20T02:05:48.966Z,16.90
2019-06-20T02:08:18.375Z,16.80
2019-06-20T02:10:48.460Z,16.90
2019-06-20T02:13:17.835Z,16.80
2019-06-20T02:15:47.763Z,16.80
2019-06-20T02:18:17.104Z,16.70
2019-06-20T02:20:49.982Z,16.70
2019-06-20T02:23:19.613Z,16.60
2019-06-20T02:25:48.943Z,16.60
2019-06-20T02:28:20.085Z,16.70
2019-06-20T02:30:49.625Z,16.60
2019-06-20T02:33:19.036Z,16.70
2019-06-20T02:35:48.469Z,16.70
2019-06-20T02:38:17.890Z,16.80
2019-06-20T02:40:47.305Z,16.80
2019-06-20T02:43:16.699Z,16.70
2019-06-20T02:45:46.660Z,16.70
2019-06-20T02:48:16.383Z,16.70
2019-06-20T02:50:45.720Z,16.70
2019-06-20T02:53:15.127Z,16.80
2019-06-20T02:55:44.478Z,16.80
2019-06-20T02:58:13.809Z,16.90
2019-06-20T03:00:56.647Z,16.90
2019-06-20T03:03:27.141Z,16.90
2019-06-20T03:05:56.987Z,17.00
2019-06-20T03:08:26.977Z,17.10
2019-06-20T03:10:56.316Z,17.10
2019-06-20T03:13:25.656Z,17.10
2019-06-20T03:15:55.068Z,17.10
2019-06-20T03:18:24.395Z,17.20
2019-06-20T03:20:53.732Z,17.20
2019-06-20T03:23:23.071Z,17.20
2019-06-20T03:25:52.705Z,17.30
2019-06-20T03:28:22.047Z,17.30
2019-06-20T03:30:51.401Z,17.40
2019-06-20T03:33:20.804Z,17.50
2019-06-20T03:35:50.147Z,17.40
2019-06-20T03:38:19.479Z,17.50
2019-06-20T03:40:48.828Z,17.50
2019-06-20T03:43:18.170Z,17.50
2019-06-20T03:45:49.613Z,17.60
2019-06-20T03:48:19.030Z,17.60
2019-06-20T03:50:48.435Z,17.60
2019-06-20T03:53:17.839Z,17.70
2019-06-20T03:55:47.175Z,17.70
2019-06-20T03:58:17.509Z,17.80
2019-06-20T04:00:46.840Z,17.90
2019-06-20T04:03:16.183Z,17.90
2019-06-20T04:05:45.537Z,17.90
2019-06-20T04:08:14.932Z,17.90
2019-06-20T04:10:44.539Z,18.00
2019-06-20T04:13:13.916Z,18.10
2019-06-20T04:15:44.959Z,18.10
2019-06-20T04:18:15.404Z,18.20
2019-06-20T04:20:47.239Z,18.30
2019-06-20T04:23:16.599Z,18.40
2019-06-20T04:25:45.946Z,18.40
2019-06-20T04:28:15.349Z,18.40
2019-06-20T04:30:45.868Z,18.30
2019-06-20T04:33:15.200Z,18.20
2019-06-20T04:35:44.627Z,18.20
2019-06-20T04:38:14.315Z,18.20
2019-06-20T04:40:43.841Z,18.20
2019-06-20T04:43:13.254Z,18.20
2019-06-20T04:46:13.919Z,18.30
2019-06-20T04:48:43.275Z,18.40
2019-06-20T04:51:12.606Z,18.50
2019-06-20T04:53:41.954Z,18.60
2019-06-20T04:56:11.317Z,18.60
2019-06-20T04:58:40.804Z,18.70
2019-06-20T05:01:10.154Z,18.80
2019-06-20T05:03:39.483Z,18.90
2019-06-20T05:06:08.929Z,18.90
2019-06-20T05:08:38.295Z,19.00
2019-06-20T05:11:07.641Z,19.10
2019-06-20T05:13:37.068Z,19.20
2019-06-20T05:16:06.420Z,19.20
2019-06-20T05:18:35.823Z,19.30
2019-06-20T05:21:05.338Z,19.40
2019-06-20T05:23:34.738Z,19.40
2019-06-20T05:26:04.215Z,19.50
2019-06-20T05:28:34.671Z,19.50
2019-06-20T05:31:04.031Z,19.60
2019-06-20T05:33:33.753Z,19.70
2019-06-20T05:36:03.262Z,19.80
2019-06-20T05:38:32.633Z,19.90
2019-06-20T05:41:01.980Z,20.00
2019-06-20T05:43:31.438Z,20.10
2019-06-20T05:46:09.656Z,20.20
2019-06-20T05:48:32.934Z,20.30
2019-06-20T05:51:02.538Z,20.40
2019-06-20T05:53:31.938Z,20.50
2019-06-20T05:56:01.289Z,20.50
2019-06-20T05:58:30.698Z,20.60
2019-06-20T06:01:00.037Z,20.70
2019-06-20T06:03:29.378Z,20.70
2019-06-20T06:05:58.724Z,20.80
2019-06-20T06:08:28.123Z,20.90
2019-06-20T06:10:57.467Z,21.00
2019-06-20T06:13:26.883Z,21.10
2019-06-20T06:15:56.226Z,21.20
2019-06-20T06:18:25.592Z,21.20
2019-06-20T06:20:55.009Z,21.30
2019-06-20T06:23:24.346Z,21.40
2019-06-20T06:25:53.696Z,21.50
2019-06-20T06:28:23.042Z,21.70
2019-06-20T06:30:52.394Z,21.70
2019-06-20T06:33:21.771Z,21.80
2019-06-20T06:35:51.132Z,21.90
2019-06-20T06:38:22.361Z,22.00
2019-06-20T06:40:51.600Z,22.10
2019-06-20T06:43:20.943Z,22.10
2019-06-20T06:45:50.291Z,22.30
2019-06-20T06:48:19.706Z,22.20
2019-06-20T06:50:49.049Z,22.30
2019-06-20T06:53:18.394Z,22.40
2019-06-20T06:55:47.726Z,22.40
2019-06-20T06:58:18.238Z,22.50
2019-06-20T07:00:47.707Z,22.60
2019-06-20T07:03:17.254Z,22.80
2019-06-20T07:05:46.610Z,22.90
2019-06-20T07:08:16.672Z,23.00
2019-06-20T07:10:46.067Z,23.00
2019-06-20T07:13:15.613Z,23.10
2019-06-20T07:15:45.109Z,23.30
2019-06-20T07:18:14.498Z,23.40
2019-06-20T07:20:43.838Z,23.50
2019-06-20T07:23:13.386Z,23.60
2019-06-20T07:25:42.929Z,23.70
2019-06-20T07:28:12.262Z,23.90
2019-06-20T07:30:41.610Z,23.80
2019-06-20T07:33:10.942Z,24.00
2019-06-20T07:35:41.889Z,24.10
2019-06-20T07:38:11.793Z,24.20
2019-06-20T07:40:41.118Z,24.30
2019-06-20T07:43:10.454Z,24.40
2019-06-20T07:45:39.795Z,24.40
2019-06-20T07:48:09.156Z,24.60
2019-06-20T07:50:39.420Z,24.60
2019-06-20T07:53:10.587Z,24.70
2019-06-20T07:55:40.020Z,24.80
2019-06-20T07:58:09.423Z,25.00
2019-06-20T08:00:38.776Z,25.10
2019-06-20T08:03:09.982Z,25.20
2019-06-20T08:05:39.315Z,25.10
2019-06-20T08:08:08.654Z,25.10
2019-06-20T08:10:37.988Z,25.30
2019-06-20T08:13:07.334Z,25.40
2019-06-20T08:15:36.672Z,25.60
2019-06-20T08:18:06.624Z,25.70
2019-06-20T08:20:36.231Z,26.00
2019-06-20T08:23:05.714Z,25.90
2019-06-20T08:25:35.075Z,26.00
2019-06-20T08:28:06.601Z,26.20
2019-06-20T08:30:37.437Z,26.30
2019-06-20T08:33:11.881Z,26.50
2019-06-20T08:35:39.646Z,26.60
2019-06-20T08:38:09.459Z,26.50
2019-06-20T08:40:42.629Z,26.70
2019-06-20T08:43:12.172Z,27.20
2019-06-20T08:45:43.840Z,27.30
2019-06-20T08:48:13.476Z,27.30
2019-06-20T08:50:43.405Z,27.30
2019-06-20T08:53:12.830Z,27.40
2019-06-20T08:55:42.382Z,27.60
2019-06-20T08:58:11.711Z,27.90
2019-06-20T09:00:42.897Z,27.90
2019-06-20T09:03:12.254Z,27.80
2019-06-20T09:05:41.614Z,27.90
2019-06-20T09:08:11.885Z,28.00
2019-06-20T09:10:42.516Z,27.80
2019-06-20T09:13:13.286Z,28.00
2019-06-20T09:15:43.463Z,28.30
2019-06-20T09:18:13.120Z,28.60
2019-06-20T09:20:42.529Z,28.40
2019-06-20T09:23:11.854Z,28.70
2019-06-20T09:25:41.558Z,28.80
2019-06-20T09:28:11.046Z,29.00
2019-06-20T09:30:40.796Z,28.70
2019-06-20T09:33:10.162Z,28.60
2019-06-20T09:35:39.848Z,28.80
2019-06-20T09:38:09.281Z,28.50
2019-06-20T09:40:38.621Z,28.40
2019-06-20T09:43:08.231Z,28.70
2019-06-20T09:45:37.864Z,28.70
2019-06-20T09:48:07.253Z,28.40
2019-06-20T09:50:36.950Z,28.20
2019-06-20T09:53:06.303Z,27.80
2019-06-20T09:55:35.839Z,27.60
2019-06-20T09:58:05.731Z,27.70
2019-06-20T10:00:36.903Z,28.00
2019-06-20T10:03:06.822Z,28.30
2019-06-20T10:05:39.006Z,28.00
2019-06-20T10:08:10.166Z,28.30
2019-06-20T10:10:39.871Z,28.90
2019-06-20T10:13:09.241Z,28.90
2019-06-20T10:15:39.487Z,29.00
2019-06-20T10:18:08.931Z,29.10
2019-06-20T10:20:39.119Z,29.70
2019-06-20T10:23:09.287Z,29.80
2019-06-20T10:25:42.275Z,29.60
2019-06-20T10:28:11.933Z,29.90
2019-06-20T10:30:41.380Z,29.70
2019-06-20T10:33:10.706Z,29.70
2019-06-20T10:35:40.087Z,29.20
2019-06-20T10:38:09.428Z,29.40
2019-06-20T10:40:38.767Z,29.70
2019-06-20T10:43:09.967Z,30.00
2019-06-20T10:45:39.835Z,30.10
2019-06-20T10:48:09.182Z,30.60
2019-06-20T10:50:38.511Z,31.00
2019-06-20T10:53:08.151Z,31.00
2019-06-20T10:55:37.549Z,31.20
2019-06-20T10:58:08.112Z,31.20
2019-06-20T11:00:37.434Z,31.00
2019-06-20T11:03:07.106Z,31.20
2019-06-20T11:05:36.887Z,31.20
2019-06-20T11:08:06.523Z,30.90
2019-06-20T11:10:36.039Z,31.50
2019-06-20T11:13:05.577Z,31.50
2019-06-20T11:15:35.282Z,31.30
2019-06-20T11:18:04.623Z,31.10
2019-06-20T11:20:33.956Z,31.10
2019-06-20T11:23:03.576Z,31.00
2019-06-20T11:25:32.903Z,31.30
2019-06-20T11:28:03.342Z,31.80
2019-06-20T11:30:46.452Z,32.10
2019-06-20T11:33:05.518Z,32.50
2019-06-20T11:35:35.948Z,32.10
2019-06-20T11:38:06.098Z,32.20
2019-06-20T11:40:36.820Z,32.00
2019-06-20T11:43:08.811Z,32.30
2019-06-20T11:45:38.935Z,32.30
2019-06-20T11:48:08.444Z,32.20
2019-06-20T11:50:38.386Z,32.30
2019-06-20T11:53:07.721Z,32.50
2019-06-20T11:55:37.163Z,32.40
2019-06-20T11:58:08.058Z,31.90
2019-06-20T12:00:37.450Z,31.70
2019-06-20T12:03:07.027Z,31.50
2019-06-20T12:05:36.363Z,32.00
2019-06-20T12:08:06.012Z,32.00
2019-06-20T12:10:35.357Z,32.40
2019-06-20T12:13:04.763Z,32.90
2019-06-20T12:15:34.101Z,32.60
2019-06-20T12:18:03.437Z,33.00
2019-06-20T12:20:33.771Z,33.00
2019-06-20T12:23:03.104Z,33.20
2019-06-20T12:25:32.526Z,33.20
2019-06-20T12:28:01.891Z,33.30
2019-06-20T12:30:31.334Z,33.30
2019-06-20T12:33:00.753Z,33.20
2019-06-20T12:35:30.190Z,32.80
2019-06-20T12:38:00.031Z,32.60
2019-06-20T12:40:30.051Z,32.70
2019-06-20T12:43:00.859Z,32.80
2019-06-20T12:45:30.200Z,32.80
2019-06-20T12:47:59.547Z,32.60
2019-06-20T12:50:28.963Z,32.60
2019-06-20T12:52:58.326Z,32.10
2019-06-20T12:55:27.685Z,31.70
2019-06-20T12:57:57.096Z,31.40
2019-06-20T13:00:27.754Z,31.20
2019-06-20T13:02:58.916Z,31.00
2019-06-20T13:05:28.631Z,30.80
2019-06-20T13:07:58.976Z,30.20
2019-06-20T13:10:28.550Z,29.60
2019-06-20T13:12:57.886Z,29.20
2019-06-20T13:15:27.239Z,29.00
2019-06-20T13:17:56.572Z,28.70
2019-06-20T13:20:26.094Z,28.30
2019-06-20T13:22:55.438Z,28.20
2019-06-20T13:25:24.770Z,28.10
2019-06-20T13:27:54.107Z,27.90
2019-06-20T13:30:23.442Z,27.60
2019-06-20T13:32:52.858Z,27.50
2019-06-20T13:35:22.406Z,27.50
2019-06-20T13:37:51.791Z,27.30
2019-06-20T13:40:21.758Z,27.10
2019-06-20T13:42:54.336Z,26.80
2019-06-20T13:45:24.164Z,26.50
2019-06-20T13:47:53.902Z,26.30
2019-06-20T13:50:25.823Z,26.30
2019-06-20T13:52:55.179Z,26.10
2019-06-20T13:55:24.797Z,26.00
2019-06-20T13:57:54.207Z,26.00
2019-06-20T14:00:24.477Z,26.00
2019-06-20T14:02:53.817Z,25.80
2019-06-20T14:05:23.244Z,25.80
2019-06-20T14:07:55.388Z,25.70
2019-06-20T14:10:23.894Z,25.70
2019-06-20T14:12:53.619Z,25.60
2019-06-20T14:15:23.359Z,25.60
2019-06-20T14:17:53.863Z,25.50
2019-06-20T14:20:23.823Z,25.40
2019-06-20T14:22:54.422Z,25.40
2019-06-20T14:25:24.411Z,25.40
2019-06-20T14:27:54.021Z,25.50
2019-06-20T14:30:23.635Z,25.50
2019-06-20T14:32:53.949Z,25.40
2019-06-20T14:35:24.662Z,25.40
2019-06-20T14:37:55.499Z,25.50
2019-06-20T14:40:25.345Z,25.50
2019-06-20T14:42:54.786Z,25.60
2019-06-20T14:45:24.376Z,25.60
2019-06-20T14:47:55.087Z,25.60
2019-06-20T14:50:25.186Z,25.50
2019-06-20T14:52:54.589Z,25.40
2019-06-20T14:55:24.623Z,25.40
2019-06-20T14:57:54.711Z,25.40
2019-06-20T15:00:27.412Z,25.40
2019-06-20T15:02:58.714Z,25.40
2019-06-20T15:05:27.898Z,25.30
2019-06-20T15:07:57.386Z,25.20
2019-06-20T15:10:26.956Z,25.10
2019-06-20T15:12:57.611Z,25.10
2019-06-20T15:15:26.966Z,25.10
2019-06-20T15:17:58.046Z,24.90
2019-06-20T15:20:27.374Z,24.90
2019-06-20T15:22:58.414Z,24.80
2019-06-20T15:25:27.759Z,24.70
2019-06-20T15:27:57.475Z,24.70
2019-06-20T15:30:26.959Z,25.00
2019-06-20T15:33:07.442Z,25.30
2019-06-20T15:35:27.589Z,25.70
2019-06-20T15:37:57.899Z,26.30
2019-06-20T15:40:27.504Z,26.90
2019-06-20T15:42:58.782Z,27.30
2019-06-20T15:45:28.363Z,27.30
2019-06-20T15:47:58.083Z,27.20
2019-06-20T15:50:27.421Z,27.30
2019-06-20T15:52:56.766Z,27.30
2019-06-20T15:55:26.504Z,26.90
2019-06-20T15:57:56.063Z,26.80
2019-06-20T16:00:25.865Z,26.70
2019-06-20T16:03:08.961Z,26.50
2019-06-20T16:05:26.342Z,26.60
2019-06-20T16:07:55.707Z,26.60
2019-06-20T16:10:25.045Z,26.50
2019-06-20T16:12:54.458Z,26.50
2019-06-20T16:15:23.799Z,26.40
2019-06-20T16:17:53.364Z,26.30
2019-06-20T16:20:23.166Z,26.20
2019-06-20T16:22:52.610Z,26.10
2019-06-20T16:25:22.436Z,26.20
2019-06-20T16:27:51.799Z,26.10
2019-06-20T16:30:23.377Z,26.20
2019-06-20T16:32:52.718Z,26.30
2019-06-20T16:35:24.166Z,26.30
2019-06-20T16:37:53.526Z,26.40
2019-06-20T16:40:35.528Z,26.50
2019-06-20T16:43:04.978Z,26.80
2019-06-20T16:45:34.390Z,26.90
2019-06-20T16:48:03.740Z,27.10
2019-06-20T16:50:33.399Z,27.40
2019-06-20T16:53:03.994Z,27.50
2019-06-20T16:55:33.643Z,27.40
2019-06-20T16:58:04.888Z,27.30
2019-06-20T17:00:34.436Z,26.90
2019-06-20T17:03:04.153Z,26.80
2019-06-20T17:05:33.573Z,26.50
2019-06-20T17:08:03.040Z,26.30
2019-06-20T17:10:32.452Z,26.30
2019-06-20T17:13:01.811Z,26.30
2019-06-20T17:15:31.181Z,26.20
2019-06-20T17:18:01.507Z,26.30
2019-06-20T17:20:30.870Z,26.30
2019-06-20T17:23:00.199Z,26.30
2019-06-20T17:25:29.628Z,26.30
2019-06-20T17:27:58.976Z,26.30
2019-06-20T17:30:28.891Z,26.40
2019-06-20T17:32:58.233Z,26.60
2019-06-20T17:35:27.756Z,26.90
2019-06-20T17:37:57.141Z,26.90
2019-06-20T17:40:27.151Z,26.80
2019-06-20T17:42:56.539Z,27.10
2019-06-20T17:45:27.554Z,27.10
2019-06-20T17:47:56.905Z,27.10
2019-06-20T17:50:27.030Z,27.00
2019-06-20T17:52:56.374Z,26.80
2019-06-20T17:55:25.735Z,26.70
2019-06-20T17:57:55.235Z,26.50
2019-06-20T18:00:25.295Z,26.70
2019-06-20T18:02:54.839Z,26.80
2019-06-20T18:05:24.591Z,26.60
2019-06-20T18:07:53.923Z,26.30
2019-06-20T18:10:25.034Z,26.00
2019-06-20T18:12:54.383Z,25.60
2019-06-20T18:15:23.854Z,25.50
2019-06-20T18:17:53.345Z,25.30
2019-06-20T18:20:23.067Z,25.10
2019-06-20T18:22:52.499Z,25.00
2019-06-20T18:25:22.113Z,24.90
2019-06-20T18:27:51.462Z,24.90
2019-06-20T18:30:27.922Z,24.70
2019-06-20T18:32:57.343Z,24.70
2019-06-20T18:35:26.684Z,24.70
2019-06-20T18:37:56.071Z,24.60
2019-06-20T18:40:25.484Z,24.50
2019-06-20T18:45:35.291Z,24.40
2019-06-20T18:48:04.853Z,24.20
2019-06-20T18:50:34.262Z,24.30
2019-06-20T18:53:03.621Z,24.10
2019-06-20T18:55:33.063Z,24.10
2019-06-20T18:58:02.477Z,24.10
2019-06-20T19:00:34.951Z,23.90
2019-06-20T19:03:03.391Z,23.80
2019-06-20T19:05:32.734Z,23.80
2019-06-20T19:08:02.105Z,23.70
2019-06-20T19:10:33.556Z,23.60
2019-06-20T19:13:02.536Z,23.40
2019-06-20T19:15:31.954Z,23.30
2019-06-20T19:18:01.298Z,23.30
2019-06-20T19:20:30.635Z,23.30
2019-06-20T19:23:00.028Z,23.20
2019-06-20T19:25:30.854Z,23.10
2019-06-20T19:28:00.466Z,23.20
2019-06-20T19:30:44.782Z,23.10
2019-06-20T19:33:14.137Z,23.00
2019-06-20T19:35:43.804Z,22.90
2019-06-20T19:38:13.160Z,22.90
2019-06-20T19:40:46.368Z,22.80
2019-06-20T19:43:17.573Z,22.80
2019-06-20T19:45:47.107Z,22.70
2019-06-20T19:48:17.253Z,22.80
2019-06-20T19:50:46.595Z,22.70
2019-06-20T19:53:16.039Z,22.80
2019-06-20T19:55:45.793Z,22.70
2019-06-20T19:58:15.194Z,22.70
2019-06-20T20:00:45.243Z,22.70
2019-06-20T20:03:14.580Z,22.70
2019-06-20T20:05:44.697Z,22.60
2019-06-20T20:08:14.364Z,22.50
2019-06-20T20:10:48.515Z,22.40
2019-06-20T20:13:20.019Z,22.40
2019-06-20T20:15:49.560Z,22.30
2019-06-20T20:18:18.898Z,22.20
2019-06-20T20:20:48.676Z,22.10
2019-06-20T20:23:18.086Z,22.00
2019-06-20T20:25:47.495Z,22.00
2019-06-20T20:28:16.840Z,22.00
2019-06-20T20:30:46.196Z,21.90
2019-06-20T20:33:15.718Z,21.90
2019-06-20T20:35:45.247Z,21.90
2019-06-20T20:38:14.593Z,21.90
2019-06-20T20:40:44.879Z,21.90
2019-06-20T20:43:14.370Z,21.80
2019-06-20T20:45:43.787Z,21.80
2019-06-20T20:48:13.191Z,21.80
2019-06-20T20:50:43.173Z,21.80
2019-06-20T20:53:12.576Z,21.80
2019-06-20T20:55:41.982Z,21.70
2019-06-20T20:58:11.319Z,21.80
2019-06-20T21:00:57.586Z,21.70
2019-06-20T21:03:26.933Z,21.60
2019-06-20T21:05:56.263Z,21.60
2019-06-20T21:08:25.629Z,21.50
2019-06-20T21:10:54.980Z,21.40
2019-06-20T21:13:24.978Z,21.40
2019-06-20T21:15:54.334Z,21.30
2019-06-20T21:18:23.999Z,21.30
2019-06-20T21:20:53.409Z,21.30
2019-06-20T21:23:22.760Z,21.30
2019-06-20T21:25:52.167Z,21.20
2019-06-20T21:28:21.541Z,21.20
2019-06-20T21:30:50.932Z,21.20
2019-06-20T21:33:20.272Z,21.10
2019-06-20T21:35:49.830Z,21.10
2019-06-20T21:38:19.238Z,21.00
2019-06-20T21:40:48.629Z,20.90
2019-06-20T21:43:18.052Z,20.80
2019-06-20T21:45:47.390Z,20.70
